createdAt,value
2018-11-03T00:01:16.017Z,14.75
2018-11-03T00:03:51.629Z,15.30
2018-11-03T00:06:27.125Z,13.00
2018-11-03T00:09:02.835Z,14.93
2018-11-03T00:11:38.465Z,14.45
2018-11-03T00:14:14.245Z,12.98
2018-11-03T00:16:49.760Z,12.60
2018-11-03T00:19:26.045Z,18.17
2018-11-03T00:22:01.404Z,17.40
2018-11-03T00:24:37.041Z,14.78
2018-11-03T00:27:12.447Z,12.70
2018-11-03T00:29:48.059Z,14.03
2018-11-03T00:32:23.513Z,15.58
2018-11-03T00:34:59.224Z,17.85
2018-11-03T00:37:34.568Z,15.10
2018-11-03T00:40:13.485Z,16.77
2018-11-03T00:42:49.026Z,15.32
2018-11-03T00:45:24.384Z,23.18
2018-11-03T00:47:59.830Z,23.10
2018-11-03T00:50:35.480Z,21.45
2018-11-03T00:53:11.117Z,29.92
2018-11-03T00:55:46.680Z,18.55
2018-11-03T00:58:22.181Z,24.67
2018-11-03T01:00:57.781Z,35.40
2018-11-03T01:03:33.090Z,35.40
2018-11-03T01:06:08.871Z,23.60
2018-11-03T01:08:44.338Z,29.63
2018-11-03T01:11:19.981Z,23.25
2018-11-03T01:13:55.375Z,14.65
2018-11-03T01:16:30.859Z,19.98
2018-11-03T01:19:06.315Z,19.25
2018-11-03T01:21:41.971Z,16.90
2018-11-03T01:24:17.380Z,17.15
2018-11-03T01:26:52.957Z,16.57
2018-11-03T01:29:28.467Z,19.05
2018-11-03T01:32:04.045Z,19.17
2018-11-03T01:34:39.514Z,18.90
2018-11-03T01:37:15.243Z,21.90
2018-11-03T01:39:50.731Z,25.80
2018-11-03T01:42:26.437Z,27.65
2018-11-03T01:45:01.975Z,21.73
2018-11-03T01:47:38.145Z,25.85
2018-11-03T01:50:13.645Z,19.75
2018-11-03T01:52:49.649Z,19.40
2018-11-03T01:55:25.175Z,18.80
2018-11-03T01:58:00.747Z,18.85
2018-11-03T02:00:36.093Z,17.90
2018-11-03T02:03:11.734Z,18.95
2018-11-03T02:05:47.091Z,21.55
2018-11-03T02:08:22.949Z,28.67
2018-11-03T02:10:58.349Z,21.17
2018-11-03T02:13:33.952Z,21.55
2018-11-03T02:16:09.397Z,18.30
2018-11-03T02:18:44.918Z,18.40
2018-11-03T02:21:20.393Z,24.75
2018-11-03T02:23:56.013Z,22.10
2018-11-03T02:26:31.578Z,20.08
2018-11-03T02:29:07.305Z,21.85
2018-11-03T02:31:42.602Z,20.05
2018-11-03T02:34:18.620Z,22.87
2018-11-03T02:36:54.106Z,21.35
2018-11-03T02:39:29.616Z,22.17
2018-11-03T02:42:05.255Z,27.87
2018-11-03T02:44:40.904Z,24.35
2018-11-03T02:47:16.285Z,22.48
2018-11-03T02:49:51.804Z,24.27
2018-11-03T02:52:27.281Z,25.05
2018-11-03T02:55:02.792Z,30.43
2018-11-03T02:57:38.630Z,25.77
2018-11-03T03:00:14.603Z,23.10
2018-11-03T03:02:50.101Z,23.00
2018-11-03T03:05:25.594Z,25.05
2018-11-03T03:08:00.897Z,24.10
2018-11-03T03:10:36.484Z,25.43
2018-11-03T03:13:11.965Z,25.68
2018-11-03T03:15:47.583Z,25.92
2018-11-03T03:18:23.069Z,24.80
2018-11-03T03:20:58.886Z,23.35
2018-11-03T03:23:34.209Z,24.37
2018-11-03T03:26:10.025Z,25.72
2018-11-03T03:28:45.488Z,24.23
2018-11-03T03:31:20.980Z,24.05
2018-11-03T03:33:56.313Z,23.20
2018-11-03T03:36:31.966Z,24.92
2018-11-03T03:39:10.041Z,21.93
2018-11-03T03:41:45.812Z,22.02
2018-11-03T03:44:21.285Z,22.67
2018-11-03T03:46:56.973Z,23.35
2018-11-03T03:49:32.355Z,21.30
2018-11-03T03:52:08.169Z,25.40
2018-11-03T03:54:43.498Z,22.27
2018-11-03T03:57:19.102Z,21.48
2018-11-03T03:59:55.264Z,23.38
2018-11-03T04:02:30.928Z,23.25
2018-11-03T04:05:06.661Z,21.73
2018-11-03T04:07:42.213Z,22.93
2018-11-03T04:10:17.573Z,23.40
2018-11-03T04:12:53.237Z,22.60
2018-11-03T04:15:28.680Z,22.42
2018-11-03T04:18:04.610Z,22.93
2018-11-03T04:20:40.085Z,23.60
2018-11-03T04:23:15.611Z,22.75
2018-11-03T04:25:51.045Z,23.05
2018-11-03T04:28:26.707Z,22.87
2018-11-03T04:31:02.170Z,22.15
2018-11-03T04:33:37.709Z,22.58
2018-11-03T04:36:13.239Z,20.88
2018-11-03T04:38:48.989Z,23.05
2018-11-03T04:41:24.620Z,23.25
2018-11-03T04:44:00.188Z,22.73
2018-11-03T04:46:35.380Z,22.58
2018-11-03T04:49:11.077Z,20.10
2018-11-03T04:51:46.540Z,22.98
2018-11-03T04:54:22.173Z,22.22
2018-11-03T04:56:57.677Z,21.60
2018-11-03T04:59:33.358Z,22.17
2018-11-03T05:02:08.699Z,23.15
2018-11-03T05:04:44.264Z,23.18
2018-11-03T05:07:20.085Z,23.40
2018-11-03T05:09:55.728Z,23.57
2018-11-03T05:12:31.130Z,23.45
2018-11-03T05:15:06.866Z,23.10
2018-11-03T05:17:42.338Z,24.63
2018-11-03T05:20:17.875Z,21.97
2018-11-03T05:22:53.268Z,21.62
2018-11-03T05:25:28.867Z,21.48
2018-11-03T05:28:04.256Z,22.58
2018-11-03T05:30:39.738Z,22.77
2018-11-03T05:33:15.277Z,23.65
2018-11-03T05:35:50.729Z,24.55
2018-11-03T05:38:26.212Z,23.77
2018-11-03T05:41:01.831Z,22.90
2018-11-03T05:43:37.343Z,21.70
2018-11-03T05:46:13.171Z,23.02
2018-11-03T05:48:48.583Z,22.77
2018-11-03T05:51:24.417Z,24.63
2018-11-03T05:53:59.873Z,22.87
2018-11-03T05:56:35.416Z,24.60
2018-11-03T05:59:10.922Z,24.55
2018-11-03T06:01:46.412Z,25.92
2018-11-03T06:04:21.881Z,25.23
2018-11-03T06:06:57.716Z,24.65
2018-11-03T06:09:33.025Z,25.02
2018-11-03T06:12:08.753Z,24.47
2018-11-03T06:14:44.229Z,25.72
2018-11-03T06:17:19.906Z,22.85
2018-11-03T06:19:55.397Z,24.92
2018-11-03T06:22:31.011Z,24.47
2018-11-03T06:25:07.972Z,23.92
2018-11-03T06:27:43.625Z,22.67
2018-11-03T06:30:18.854Z,23.05
2018-11-03T06:32:54.418Z,24.18
2018-11-03T06:35:29.869Z,25.72
2018-11-03T06:38:05.699Z,24.70
2018-11-03T06:40:41.072Z,24.32
2018-11-03T06:43:16.620Z,23.90
2018-11-03T06:45:52.076Z,25.05
2018-11-03T06:48:27.802Z,24.85
2018-11-03T06:51:03.465Z,25.15
2018-11-03T06:53:39.254Z,26.48
2018-11-03T06:56:14.773Z,27.20
2018-11-03T06:58:50.300Z,30.37
2018-11-03T07:01:25.930Z,27.27
2018-11-03T07:04:01.619Z,26.35
2018-11-03T07:06:37.101Z,26.00
2018-11-03T07:09:13.512Z,24.85
2018-11-03T07:11:48.773Z,23.87
2018-11-03T07:14:24.413Z,23.27
2018-11-03T07:16:59.714Z,24.23
2018-11-03T07:19:35.184Z,22.75
2018-11-03T07:22:10.789Z,23.02
2018-11-03T07:24:46.504Z,21.45
2018-11-03T07:27:22.095Z,22.30
2018-11-03T07:29:57.681Z,21.50
2018-11-03T07:32:33.257Z,21.52
2018-11-03T07:35:09.184Z,22.65
2018-11-03T07:37:44.777Z,21.60
2018-11-03T07:40:20.391Z,21.23
2018-11-03T07:42:55.797Z,20.60
2018-11-03T07:45:31.385Z,19.23
2018-11-03T07:48:06.970Z,19.17
2018-11-03T07:50:42.375Z,18.65
2018-11-03T07:53:17.957Z,18.67
2018-11-03T07:55:53.575Z,18.15
2018-11-03T07:58:28.986Z,19.60
2018-11-03T08:01:04.878Z,16.97
2018-11-03T08:03:40.389Z,17.05
2018-11-03T08:06:16.106Z,16.65
2018-11-03T08:08:51.611Z,16.20
2018-11-03T08:11:27.266Z,16.50
2018-11-03T08:14:02.600Z,15.68
2018-11-03T08:16:38.269Z,14.73
2018-11-03T08:19:13.528Z,15.23
2018-11-03T08:21:49.195Z,15.08
2018-11-03T08:24:24.563Z,14.95
2018-11-03T08:27:00.051Z,14.43
2018-11-03T08:29:35.531Z,14.65
2018-11-03T08:32:11.030Z,15.15
2018-11-03T08:34:46.386Z,14.03
2018-11-03T08:37:21.925Z,14.30
2018-11-03T08:39:57.566Z,14.47
2018-11-03T08:42:33.104Z,15.18
2018-11-03T08:45:09.281Z,13.60
2018-11-03T08:47:44.764Z,12.45
2018-11-03T08:50:20.113Z,12.85
2018-11-03T08:52:55.685Z,13.15
2018-11-03T08:55:31.052Z,13.10
2018-11-03T08:58:07.098Z,11.95
2018-11-03T09:00:42.675Z,12.80
2018-11-03T09:03:18.269Z,13.25
2018-11-03T09:05:53.723Z,11.78
2018-11-03T09:08:29.280Z,12.00
2018-11-03T09:11:04.859Z,12.85
2018-11-03T09:13:40.408Z,10.53
2018-11-03T09:16:15.779Z,10.60
2018-11-03T09:18:51.182Z,12.40
2018-11-03T09:21:26.625Z,11.35
2018-11-03T09:24:02.083Z,10.75
2018-11-03T09:26:37.883Z,10.60
2018-11-03T09:29:13.371Z,10.05
2018-11-03T09:31:48.839Z,10.28
2018-11-03T09:34:24.304Z,9.83
2018-11-03T09:36:59.652Z,10.60
2018-11-03T09:39:35.618Z,9.90
2018-11-03T09:42:11.101Z,9.18
2018-11-03T09:44:46.589Z,8.40
2018-11-03T09:47:22.132Z,8.05
2018-11-03T09:49:57.616Z,7.60
2018-11-03T09:52:33.135Z,7.78
2018-11-03T09:55:12.148Z,7.80
2018-11-03T09:57:47.684Z,7.10
2018-11-03T10:00:23.367Z,5.22
2018-11-03T10:02:58.773Z,5.40
2018-11-03T10:05:34.359Z,5.60
2018-11-03T10:08:09.678Z,5.30
2018-11-03T10:10:45.129Z,5.40
2018-11-03T10:13:20.493Z,6.28
2018-11-03T10:15:55.999Z,6.05
2018-11-03T10:18:31.281Z,6.50
2018-11-03T10:21:06.972Z,6.35
2018-11-03T10:23:42.395Z,6.35
2018-11-03T10:26:17.788Z,5.90
2018-11-03T10:28:53.217Z,5.60
2018-11-03T10:31:28.580Z,5.60
2018-11-03T10:34:04.149Z,4.92
2018-11-03T10:36:39.522Z,5.05
2018-11-03T10:39:15.026Z,4.97
2018-11-03T10:41:50.458Z,5.10
2018-11-03T10:44:25.942Z,4.65
2018-11-03T10:47:01.558Z,4.60
2018-11-03T10:49:40.169Z,5.17
2018-11-03T10:52:15.883Z,4.50
2018-11-03T10:54:51.292Z,5.30
2018-11-03T10:57:26.931Z,4.60
2018-11-03T11:00:02.460Z,4.62
2018-11-03T11:04:47.218Z,4.22
2018-11-03T11:07:27.653Z,5.57
2018-11-03T11:10:08.514Z,4.75
2018-11-03T11:12:45.955Z,4.10
2018-11-03T11:15:21.494Z,5.10
2018-11-03T15:07:45.018Z,3.25
2018-11-03T15:10:20.434Z,5.85
2018-11-03T15:18:05.408Z,3.50
2018-11-03T15:20:41.072Z,4.80
2018-11-03T15:23:16.494Z,5.15
2018-11-03T15:25:51.917Z,3.13
2018-11-03T15:28:27.180Z,3.77
2018-11-03T15:31:02.803Z,5.10
2018-11-03T15:33:38.242Z,3.85
2018-11-03T15:36:13.818Z,4.17
2018-11-03T15:38:49.292Z,3.35
2018-11-03T15:41:24.752Z,3.45
2018-11-03T15:44:00.227Z,4.12
2018-11-03T15:46:35.781Z,3.22
2018-11-03T15:49:11.699Z,4.95
2018-11-03T15:51:47.020Z,2.95
2018-11-03T15:54:22.310Z,3.37
2018-11-03T15:56:57.663Z,3.80
2018-11-03T15:59:33.152Z,6.15
2018-11-03T16:02:08.837Z,5.10
2018-11-03T16:04:44.162Z,3.87
2018-11-03T16:07:20.038Z,4.35
2018-11-03T16:09:55.406Z,4.17
2018-11-03T16:12:30.812Z,8.00
2018-11-03T16:15:07.757Z,4.35
2018-11-03T16:17:43.667Z,5.22
2018-11-03T16:20:18.932Z,5.00
2018-11-03T16:22:54.866Z,6.20
2018-11-03T16:25:30.170Z,6.90
2018-11-03T16:28:06.003Z,6.85
2018-11-03T16:30:41.480Z,6.17
2018-11-03T16:33:17.134Z,9.68
2018-11-03T16:35:52.712Z,7.12
2018-11-03T16:38:28.921Z,8.10
2018-11-03T16:41:04.316Z,21.05
2018-11-03T16:43:39.896Z,10.15
2018-11-03T16:46:15.259Z,8.60
2018-11-03T16:48:50.633Z,25.95
2018-11-03T16:51:26.114Z,6.72
2018-11-03T16:54:01.916Z,6.12
2018-11-03T16:56:37.157Z,7.12
2018-11-03T16:59:12.737Z,5.15
2018-11-03T17:01:48.114Z,8.60
2018-11-03T17:04:23.521Z,8.10
2018-11-03T17:06:59.087Z,5.45
2018-11-03T17:09:34.440Z,5.78
2018-11-03T17:12:09.909Z,8.38
2018-11-03T17:14:45.597Z,5.45
2018-11-03T17:17:20.913Z,10.58
2018-11-03T17:19:56.325Z,9.38
2018-11-03T17:22:31.525Z,5.58
2018-11-03T17:25:08.876Z,7.00
2018-11-03T17:27:44.162Z,6.53
2018-11-03T17:30:19.591Z,5.35
2018-11-03T17:32:54.909Z,6.42
2018-11-03T17:35:30.431Z,5.85
2018-11-03T17:38:06.304Z,8.48
2018-11-03T17:40:41.752Z,7.22
2018-11-03T17:43:17.219Z,7.30
2018-11-03T17:45:52.916Z,5.42
2018-11-03T17:48:28.496Z,7.10
2018-11-03T17:51:03.940Z,5.40
2018-11-03T17:53:39.533Z,24.82
2018-11-03T17:56:15.110Z,9.70
2018-11-03T17:58:50.581Z,8.45
2018-11-03T18:01:26.207Z,9.80
2018-11-03T18:04:01.433Z,12.70
2018-11-03T18:06:37.180Z,14.10
2018-11-03T18:09:12.705Z,6.65
2018-11-03T18:11:48.421Z,8.15
2018-11-03T18:14:23.658Z,6.67
2018-11-03T18:16:59.268Z,6.65
2018-11-03T18:19:34.692Z,7.65
2018-11-03T18:22:10.363Z,43.17
2018-11-03T18:24:45.796Z,26.80
2018-11-03T18:27:21.459Z,11.33
2018-11-03T18:29:56.942Z,15.18
2018-11-03T18:32:32.357Z,29.05
2018-11-03T18:35:08.021Z,8.13
2018-11-03T18:37:43.400Z,9.70
2018-11-03T18:40:18.777Z,24.95
2018-11-03T18:42:54.364Z,9.43
2018-11-03T18:45:29.734Z,31.42
2018-11-03T18:48:05.444Z,20.35
2018-11-03T18:50:40.815Z,24.32
2018-11-03T18:53:16.461Z,7.37
2018-11-03T18:55:51.958Z,9.25
2018-11-03T18:58:27.666Z,7.28
2018-11-03T19:01:03.121Z,6.65
2018-11-03T19:03:38.915Z,12.03
2018-11-03T19:06:14.380Z,6.30
2018-11-03T19:08:49.808Z,7.70
2018-11-03T19:11:25.144Z,12.85
2018-11-03T19:14:00.635Z,9.60
2018-11-03T19:16:36.113Z,16.32
2018-11-03T19:19:11.600Z,17.05
2018-11-03T19:21:47.085Z,31.52
2018-11-03T19:24:22.568Z,24.98
2018-11-03T19:26:58.029Z,15.80
2018-11-03T19:29:33.491Z,17.98
2018-11-03T19:32:08.857Z,12.23
2018-11-03T19:34:44.320Z,17.57
2018-11-03T19:37:19.685Z,10.98
2018-11-03T19:39:55.066Z,10.32
2018-11-03T19:42:30.420Z,19.80
2018-11-03T19:45:06.033Z,13.70
2018-11-03T19:47:41.365Z,13.93
2018-11-03T19:50:16.682Z,26.97
2018-11-03T19:52:52.192Z,18.92
2018-11-03T19:55:27.617Z,15.60
2018-11-03T19:58:02.956Z,17.32
2018-11-03T20:00:38.857Z,18.50
2018-11-03T20:03:14.374Z,26.55
2018-11-03T20:05:49.673Z,15.25
2018-11-03T20:08:25.125Z,14.90
2018-11-03T20:11:00.806Z,37.50
2018-11-03T20:13:36.249Z,43.00
2018-11-03T20:16:11.657Z,23.52
2018-11-03T20:18:47.152Z,22.37
2018-11-03T20:21:22.842Z,25.37
2018-11-03T20:23:58.049Z,14.65
2018-11-03T20:26:33.474Z,14.98
2018-11-03T20:29:08.870Z,31.95
2018-11-03T20:31:44.206Z,29.92
2018-11-03T20:34:19.557Z,27.55
2018-11-03T20:36:55.073Z,40.33
2018-11-03T20:39:30.579Z,32.30
2018-11-03T20:42:06.645Z,42.15
2018-11-03T20:44:42.037Z,39.40
2018-11-03T20:47:17.429Z,27.00
2018-11-03T20:49:52.795Z,49.03
2018-11-03T20:52:28.394Z,13.55
2018-11-03T20:55:03.705Z,51.23
2018-11-03T20:57:39.240Z,18.80
2018-11-03T21:00:15.910Z,29.70
2018-11-03T21:02:51.412Z,46.95
2018-11-03T21:05:26.954Z,17.42
2018-11-03T21:08:02.357Z,13.68
2018-11-03T21:10:37.642Z,11.55
2018-11-03T21:13:13.200Z,41.80
2018-11-03T21:15:50.122Z,11.73
2018-11-03T21:18:25.669Z,29.55
2018-11-03T21:21:01.071Z,10.65
2018-11-03T21:23:36.520Z,46.18
2018-11-03T21:26:11.973Z,27.35
2018-11-03T21:28:47.577Z,17.00
2018-11-03T21:31:22.813Z,22.20
2018-11-03T21:33:58.330Z,10.78
2018-11-03T21:36:33.837Z,13.05
2018-11-03T21:39:10.739Z,11.20
2018-11-03T21:41:45.928Z,13.43
2018-11-03T21:44:21.337Z,15.30
2018-11-03T21:46:56.827Z,16.48
2018-11-03T21:49:32.919Z,24.35
2018-11-03T21:52:08.528Z,13.93
2018-11-03T21:54:44.000Z,13.53
2018-11-03T21:57:19.512Z,22.73
2018-11-03T21:59:55.078Z,18.98
2018-11-03T22:02:30.464Z,16.45
2018-11-03T22:05:07.778Z,21.60
2018-11-03T22:07:44.015Z,53.17
2018-11-03T22:10:19.450Z,30.15
2018-11-03T22:12:54.672Z,26.97
2018-11-03T22:15:30.104Z,22.40
2018-11-03T22:18:05.521Z,28.07
2018-11-03T22:20:41.076Z,47.70
2018-11-03T22:23:16.406Z,23.07
2018-11-03T22:25:51.858Z,18.57
2018-11-03T22:28:27.213Z,18.25
2018-11-03T22:31:02.641Z,17.48
2018-11-03T22:33:37.974Z,18.10
2018-11-03T22:36:13.429Z,17.42
2018-11-03T22:38:48.747Z,19.10
2018-11-03T22:41:24.102Z,17.40
2018-11-03T22:43:59.483Z,19.30
2018-11-03T22:46:35.148Z,17.02
2018-11-03T22:49:10.644Z,14.05
2018-11-03T22:51:46.093Z,16.17
2018-11-03T22:54:21.532Z,19.90
2018-11-03T22:56:57.022Z,17.15
2018-11-03T22:59:32.366Z,18.98
2018-11-03T23:02:07.959Z,20.02
2018-11-03T23:04:43.160Z,20.08
2018-11-03T23:07:18.676Z,30.27
2018-11-03T23:09:54.160Z,31.05
2018-11-03T23:12:29.636Z,18.73
2018-11-03T23:15:04.901Z,19.10
2018-11-03T23:17:40.272Z,18.55
2018-11-03T23:20:15.614Z,16.50
2018-11-03T23:22:51.281Z,17.67
2018-11-03T23:25:26.657Z,18.90
2018-11-03T23:28:02.117Z,19.42
2018-11-03T23:30:37.581Z,16.25
2018-11-03T23:33:13.073Z,16.00
2018-11-03T23:35:48.278Z,17.02
2018-11-03T23:38:23.764Z,18.00
2018-11-03T23:40:59.125Z,15.80
2018-11-03T23:43:34.567Z,22.15
2018-11-03T23:46:10.101Z,21.35
2018-11-03T23:48:45.674Z,14.85
2018-11-03T23:51:21.077Z,14.03
2018-11-03T23:53:56.863Z,17.62
2018-11-03T23:56:32.306Z,18.05
2018-11-03T23:59:08.002Z,16.17
